sensor_id;sensor_type;location;lat;lon;timestamp;temperature;humidity
36186;DHT22;22228;53.222;7.446;2023-02-28T00:00:56;3.90;99.90
36186;DHT22;22228;53.222;7.446;2023-02-28T00:03:16;3.90;99.90
36186;DHT22;22228;53.222;7.446;2023-02-28T00:05:37;3.90;99.90
36186;DHT22;22228;53.222;7.446;2023-02-28T00:07:58;3.90;99.90
36186;DHT22;22228;53.222;7.446;2023-02-28T00:10:20;3.90;99.90
36186;DHT22;22228;53.222;7.446;2023-02-28T00:12:42;3.90;99.90
36186;DHT22;22228;53.222;7.446;2023-02-28T00:15:06;3.90;99.90
36186;DHT22;22228;53.222;7.446;2023-02-28T00:17:27;3.80;99.90
36186;DHT22;22228;53.222;7.446;2023-02-28T00:19:48;3.80;99.90
36186;DHT22;22228;53.222;7.446;2023-02-28T00:22:08;3.80;99.90
36186;DHT22;22228;53.222;7.446;2023-02-28T00:24:30;3.80;99.90
36186;DHT22;22228;53.222;7.446;2023-02-28T00:26:51;3.80;99.90
36186;DHT22;22228;53.222;7.446;2023-02-28T00:29:11;3.80;99.90
36186;DHT22;22228;53.222;7.446;2023-02-28T00:31:32;3.80;99.90
36186;DHT22;22228;53.222;7.446;2023-02-28T00:33:52;3.80;99.90
36186;DHT22;22228;53.222;7.446;2023-02-28T00:36:13;3.80;99.90
36186;DHT22;22228;53.222;7.446;2023-02-28T00:38:34;3.80;99.90
36186;DHT22;22228;53.222;7.446;2023-02-28T00:40:56;3.80;99.90
36186;DHT22;22228;53.222;7.446;2023-02-28T00:43:17;3.80;99.90
36186;DHT22;22228;53.222;7.446;2023-02-28T00:45:38;3.80;99.90
36186;DHT22;22228;53.222;7.446;2023-02-28T00:47:58;3.80;99.90
36186;DHT22;22228;53.222;7.446;2023-02-28T00:50:19;3.70;99.90
36186;DHT22;22228;53.222;7.446;2023-02-28T00:52:40;3.70;99.90
36186;DHT22;22228;53.222;7.446;2023-02-28T00:55:00;3.70;99.90
36186;DHT22;22228;53.222;7.446;2023-02-28T00:57:22;3.70;99.90
36186;DHT22;22228;53.222;7.446;2023-02-28T00:59:43;3.70;99.90
36186;DHT22;22228;53.222;7.446;2023-02-28T01:02:04;3.60;99.90
36186;DHT22;22228;53.222;7.446;2023-02-28T01:04:24;3.60;99.90
36186;DHT22;22228;53.222;7.446;2023-02-28T01:06:45;3.60;99.90
36186;DHT22;22228;53.222;7.446;2023-02-28T01:09:07;3.60;99.90
36186;DHT22;22228;53.222;7.446;2023-02-28T01:11:27;3.60;99.90
36186;DHT22;22228;53.222;7.446;2023-02-28T01:13:49;3.60;99.90
36186;DHT22;22228;53.222;7.446;2023-02-28T04:01:37;3.30;99.90
36186;DHT22;22228;53.222;7.446;2023-02-28T04:04:01;3.30;99.90
36186;DHT22;22228;53.222;7.446;2023-02-28T04:06:23;3.30;99.90
36186;DHT22;22228;53.222;7.446;2023-02-28T04:08:49;3.30;99.90
36186;DHT22;22228;53.222;7.446;2023-02-28T04:11:20;3.30;99.90
36186;DHT22;22228;53.222;7.446;2023-02-28T04:13:41;3.30;99.90
36186;DHT22;22228;53.222;7.446;2023-02-28T04:16:02;3.30;99.90
36186;DHT22;22228;53.222;7.446;2023-02-28T04:18:32;3.30;99.90
36186;DHT22;22228;53.222;7.446;2023-02-28T04:20:53;3.30;99.90
36186;DHT22;22228;53.222;7.446;2023-02-28T04:23:13;3.30;99.90
36186;DHT22;22228;53.222;7.446;2023-02-28T04:25:34;3.20;99.90
36186;DHT22;22228;53.222;7.446;2023-02-28T04:27:54;3.20;99.90
36186;DHT22;22228;53.222;7.446;2023-02-28T04:30:16;3.20;99.90
36186;DHT22;22228;53.222;7.446;2023-02-28T04:32:36;3.20;99.90
36186;DHT22;22228;53.222;7.446;2023-02-28T04:34:58;3.20;99.90
36186;DHT22;22228;53.222;7.446;2023-02-28T04:37:18;3.10;99.90
36186;DHT22;22228;53.222;7.446;2023-02-28T04:39:39;3.10;99.90
36186;DHT22;22228;53.222;7.446;2023-02-28T04:42:00;3.10;99.90
36186;DHT22;22228;53.222;7.446;2023-02-28T04:44:21;3.10;99.90
36186;DHT22;22228;53.222;7.446;2023-02-28T04:46:42;3.10;99.90
36186;DHT22;22228;53.222;7.446;2023-02-28T04:49:03;3.10;99.90
36186;DHT22;22228;53.222;7.446;2023-02-28T04:51:25;3.10;99.90
36186;DHT22;22228;53.222;7.446;2023-02-28T04:53:46;3.10;99.90
36186;DHT22;22228;53.222;7.446;2023-02-28T04:56:07;3.10;99.90
36186;DHT22;22228;53.222;7.446;2023-02-28T04:58:28;3.10;99.90
36186;DHT22;22228;53.222;7.446;2023-02-28T05:00:49;3.10;99.90
36186;DHT22;22228;53.222;7.446;2023-02-28T05:03:09;3.10;99.90
36186;DHT22;22228;53.222;7.446;2023-02-28T05:05:30;3.10;99.90
36186;DHT22;22228;53.222;7.446;2023-02-28T05:07:52;3.10;99.90
36186;DHT22;22228;53.222;7.446;2023-02-28T05:10:14;3.10;99.90
36186;DHT22;22228;53.222;7.446;2023-02-28T05:12:35;3.10;99.90
36186;DHT22;22228;53.222;7.446;2023-02-28T05:14:55;3.10;99.90
36186;DHT22;22228;53.222;7.446;2023-02-28T05:17:15;3.00;99.90
36186;DHT22;22228;53.222;7.446;2023-02-28T05:19:36;3.00;99.90
36186;DHT22;22228;53.222;7.446;2023-02-28T05:21:56;3.00;99.90
36186;DHT22;22228;53.222;7.446;2023-02-28T05:24:18;3.00;99.90
36186;DHT22;22228;53.222;7.446;2023-02-28T05:26:42;3.10;99.90
36186;DHT22;22228;53.222;7.446;2023-02-28T05:29:02;3.10;99.90
36186;DHT22;22228;53.222;7.446;2023-02-28T05:31:24;3.10;99.90
36186;DHT22;22228;53.222;7.446;2023-02-28T05:33:44;3.00;99.90
36186;DHT22;22228;53.222;7.446;2023-02-28T05:36:05;3.00;99.90
36186;DHT22;22228;53.222;7.446;2023-02-28T05:38:26;2.90;99.90
36186;DHT22;22228;53.222;7.446;2023-02-28T05:40:48;2.90;99.90
36186;DHT22;22228;53.222;7.446;2023-02-28T05:43:10;2.90;99.90
36186;DHT22;22228;53.222;7.446;2023-02-28T05:45:32;2.90;99.90
36186;DHT22;22228;53.222;7.446;2023-02-28T05:47:53;2.90;99.90
36186;DHT22;22228;53.222;7.446;2023-02-28T05:50:14;2.90;99.90
36186;DHT22;22228;53.222;7.446;2023-02-28T05:52:34;2.90;99.90
36186;DHT22;22228;53.222;7.446;2023-02-28T05:54:55;2.90;99.90
36186;DHT22;22228;53.222;7.446;2023-02-28T05:57:17;2.90;99.90
36186;DHT22;22228;53.222;7.446;2023-02-28T05:59:37;2.90;99.90
36186;DHT22;22228;53.222;7.446;2023-02-28T06:01:58;2.90;99.90
36186;DHT22;22228;53.222;7.446;2023-02-28T06:04:20;2.90;99.90
36186;DHT22;22228;53.222;7.446;2023-02-28T06:06:41;2.80;99.90
36186;DHT22;22228;53.222;7.446;2023-02-28T06:09:02;2.90;99.90
36186;DHT22;22228;53.222;7.446;2023-02-28T06:11:23;2.80;99.90
36186;DHT22;22228;53.222;7.446;2023-02-28T06:13:47;2.80;99.90
36186;DHT22;22228;53.222;7.446;2023-02-28T06:16:08;2.80;99.90
36186;DHT22;22228;53.222;7.446;2023-02-28T06:18:29;2.90;99.90
36186;DHT22;22228;53.222;7.446;2023-02-28T06:20:52;3.00;99.90
36186;DHT22;22228;53.222;7.446;2023-02-28T06:23:13;3.00;99.90
36186;DHT22;22228;53.222;7.446;2023-02-28T06:25:33;3.00;99.90
36186;DHT22;22228;53.222;7.446;2023-02-28T06:27:54;3.00;99.90
36186;DHT22;22228;53.222;7.446;2023-02-28T06:30:17;3.00;99.90
36186;DHT22;22228;53.222;7.446;2023-02-28T06:32:37;3.00;99.90
36186;DHT22;22228;53.222;7.446;2023-02-28T06:34:58;3.00;99.90
36186;DHT22;22228;53.222;7.446;2023-02-28T06:37:18;3.00;99.90
36186;DHT22;22228;53.222;7.446;2023-02-28T06:39:39;3.00;99.90
36186;DHT22;22228;53.222;7.446;2023-02-28T06:42:00;3.00;99.90
36186;DHT22;22228;53.222;7.446;2023-02-28T06:44:21;3.00;99.90
36186;DHT22;22228;53.222;7.446;2023-02-28T06:46:44;3.00;99.90
36186;DHT22;22228;53.222;7.446;2023-02-28T06:49:05;3.00;99.90
36186;DHT22;22228;53.222;7.446;2023-02-28T06:51:27;3.00;99.90
36186;DHT22;22228;53.222;7.446;2023-02-28T06:53:48;3.00;99.90
36186;DHT22;22228;53.222;7.446;2023-02-28T06:56:10;3.00;99.90
36186;DHT22;22228;53.222;7.446;2023-02-28T06:58:31;3.00;99.90
36186;DHT22;22228;53.222;7.446;2023-02-28T07:00:52;2.90;99.90
36186;DHT22;22228;53.222;7.446;2023-02-28T07:03:14;2.90;99.90
36186;DHT22;22228;53.222;7.446;2023-02-28T07:05:35;2.80;99.90
36186;DHT22;22228;53.222;7.446;2023-02-28T07:07:55;2.70;99.90
36186;DHT22;22228;53.222;7.446;2023-02-28T07:10:16;2.60;99.90
36186;DHT22;22228;53.222;7.446;2023-02-28T07:12:37;2.50;99.90
36186;DHT22;22228;53.222;7.446;2023-02-28T07:14:58;2.40;99.90
36186;DHT22;22228;53.222;7.446;2023-02-28T07:17:18;2.30;99.90
36186;DHT22;22228;53.222;7.446;2023-02-28T07:19:40;2.30;99.90
36186;DHT22;22228;53.222;7.446;2023-02-28T07:22:00;2.20;99.90
36186;DHT22;22228;53.222;7.446;2023-02-28T07:24:21;2.30;99.90
36186;DHT22;22228;53.222;7.446;2023-02-28T07:26:47;2.30;99.90
36186;DHT22;22228;53.222;7.446;2023-02-28T07:29:07;2.40;99.90
36186;DHT22;22228;53.222;7.446;2023-02-28T07:31:28;2.50;99.90
36186;DHT22;22228;53.222;7.446;2023-02-28T07:33:49;2.60;99.90
36186;DHT22;22228;53.222;7.446;2023-02-28T07:36:12;2.60;99.90
36186;DHT22;22228;53.222;7.446;2023-02-28T07:38:34;2.60;99.90
36186;DHT22;22228;53.222;7.446;2023-02-28T07:40:55;2.60;99.90
36186;DHT22;22228;53.222;7.446;2023-02-28T07:43:15;2.60;99.90
36186;DHT22;22228;53.222;7.446;2023-02-28T07:45:36;2.60;99.90
36186;DHT22;22228;53.222;7.446;2023-02-28T07:47:57;2.60;99.90
36186;DHT22;22228;53.222;7.446;2023-02-28T07:50:17;2.60;99.90
36186;DHT22;22228;53.222;7.446;2023-02-28T07:52:40;2.50;99.90
36186;DHT22;22228;53.222;7.446;2023-02-28T07:55:00;2.50;99.90
36186;DHT22;22228;53.222;7.446;2023-02-28T07:57:21;2.40;99.90
36186;DHT22;22228;53.222;7.446;2023-02-28T07:59:41;2.40;99.90
36186;DHT22;22228;53.222;7.446;2023-02-28T08:02:02;2.50;99.90
36186;DHT22;22228;53.222;7.446;2023-02-28T08:04:23;2.50;99.90
36186;DHT22;22228;53.222;7.446;2023-02-28T08:06:43;2.60;99.90
36186;DHT22;22228;53.222;7.446;2023-02-28T08:09:05;2.70;99.90
36186;DHT22;22228;53.222;7.446;2023-02-28T08:11:26;2.70;99.90
36186;DHT22;22228;53.222;7.446;2023-02-28T08:13:47;2.60;99.90
36186;DHT22;22228;53.222;7.446;2023-02-28T08:16:07;2.50;99.90
36186;DHT22;22228;53.222;7.446;2023-02-28T08:18:27;2.50;99.90
36186;DHT22;22228;53.222;7.446;2023-02-28T08:20:48;2.50;99.90
36186;DHT22;22228;53.222;7.446;2023-02-28T08:23:09;2.60;99.90
36186;DHT22;22228;53.222;7.446;2023-02-28T08:25:30;2.70;99.90
36186;DHT22;22228;53.222;7.446;2023-02-28T08:27:51;2.80;99.90
36186;DHT22;22228;53.222;7.446;2023-02-28T08:30:13;2.90;99.90
36186;DHT22;22228;53.222;7.446;2023-02-28T08:32:33;2.90;99.90
36186;DHT22;22228;53.222;7.446;2023-02-28T08:34:54;3.10;99.90
36186;DHT22;22228;53.222;7.446;2023-02-28T08:37:15;3.10;99.90
36186;DHT22;22228;53.222;7.446;2023-02-28T08:39:35;3.20;99.90
36186;DHT22;22228;53.222;7.446;2023-02-28T08:41:57;3.20;99.90
36186;DHT22;22228;53.222;7.446;2023-02-28T08:44:17;3.20;99.90
36186;DHT22;22228;53.222;7.446;2023-02-28T08:46:38;3.20;99.90
36186;DHT22;22228;53.222;7.446;2023-02-28T08:48:58;3.20;99.90
36186;DHT22;22228;53.222;7.446;2023-02-28T08:51:21;3.20;99.90
36186;DHT22;22228;53.222;7.446;2023-02-28T08:53:45;3.20;99.90
36186;DHT22;22228;53.222;7.446;2023-02-28T08:56:09;3.30;99.90
36186;DHT22;22228;53.222;7.446;2023-02-28T08:58:32;3.40;99.90
36186;DHT22;22228;53.222;7.446;2023-02-28T09:00:53;3.40;99.90
36186;DHT22;22228;53.222;7.446;2023-02-28T09:03:13;3.40;99.90
36186;DHT22;22228;53.222;7.446;2023-02-28T09:05:34;3.40;99.90
36186;DHT22;22228;53.222;7.446;2023-02-28T09:07:54;3.50;99.90
36186;DHT22;22228;53.222;7.446;2023-02-28T09:10:15;3.50;99.90
36186;DHT22;22228;53.222;7.446;2023-02-28T09:12:36;3.60;99.90
36186;DHT22;22228;53.222;7.446;2023-02-28T09:14:58;3.70;99.90
36186;DHT22;22228;53.222;7.446;2023-02-28T09:17:19;3.70;99.90
36186;DHT22;22228;53.222;7.446;2023-02-28T09:19:40;3.70;99.90
36186;DHT22;22228;53.222;7.446;2023-02-28T09:22:00;3.70;99.90
36186;DHT22;22228;53.222;7.446;2023-02-28T09:24:21;3.80;99.90
36186;DHT22;22228;53.222;7.446;2023-02-28T09:26:41;3.80;99.90
36186;DHT22;22228;53.222;7.446;2023-02-28T09:29:02;3.90;99.90
36186;DHT22;22228;53.222;7.446;2023-02-28T09:31:26;3.90;99.90
36186;DHT22;22228;53.222;7.446;2023-02-28T09:33:47;3.90;99.90
36186;DHT22;22228;53.222;7.446;2023-02-28T09:36:07;3.90;99.90
36186;DHT22;22228;53.222;7.446;2023-02-28T09:38:28;4.00;99.90
36186;DHT22;22228;53.222;7.446;2023-02-28T09:40:51;4.10;99.90
36186;DHT22;22228;53.222;7.446;2023-02-28T09:43:14;4.30;99.90
36186;DHT22;22228;53.222;7.446;2023-02-28T09:45:39;4.50;99.90
36186;DHT22;22228;53.222;7.446;2023-02-28T09:48:06;4.60;99.90
36186;DHT22;22228;53.222;7.446;2023-02-28T09:50:33;4.70;99.90
36186;DHT22;22228;53.222;7.446;2023-02-28T09:52:55;4.80;99.90
36186;DHT22;22228;53.222;7.446;2023-02-28T09:55:21;5.00;99.90
36186;DHT22;22228;53.222;7.446;2023-02-28T09:57:42;5.10;99.90
36186;DHT22;22228;53.222;7.446;2023-02-28T10:00:10;5.20;99.90
36186;DHT22;22228;53.222;7.446;2023-02-28T10:02:48;5.40;99.90
36186;DHT22;22228;53.222;7.446;2023-02-28T10:05:13;5.60;99.90
36186;DHT22;22228;53.222;7.446;2023-02-28T10:07:48;5.80;99.90
36186;DHT22;22228;53.222;7.446;2023-02-28T10:10:19;6.00;99.90
36186;DHT22;22228;53.222;7.446;2023-02-28T10:12:44;6.20;99.90
36186;DHT22;22228;53.222;7.446;2023-02-28T10:15:08;6.40;99.90
36186;DHT22;22228;53.222;7.446;2023-02-28T10:17:39;6.50;99.90
36186;DHT22;22228;53.222;7.446;2023-02-28T10:20:02;6.60;99.90
36186;DHT22;22228;53.222;7.446;2023-02-28T10:22:33;6.60;99.90
36186;DHT22;22228;53.222;7.446;2023-02-28T10:24:55;6.70;99.90
36186;DHT22;22228;53.222;7.446;2023-02-28T10:27:20;6.70;99.90
36186;DHT22;22228;53.222;7.446;2023-02-28T10:29:44;6.70;99.90
36186;DHT22;22228;53.222;7.446;2023-02-28T10:32:04;6.70;99.90
36186;DHT22;22228;53.222;7.446;2023-02-28T10:34:24;6.70;99.90
36186;DHT22;22228;53.222;7.446;2023-02-28T10:36:45;6.60;99.90
36186;DHT22;22228;53.222;7.446;2023-02-28T10:39:39;6.70;99.90
36186;DHT22;22228;53.222;7.446;2023-02-28T10:41:59;6.80;99.90
36186;DHT22;22228;53.222;7.446;2023-02-28T10:44:21;6.90;99.90
36186;DHT22;22228;53.222;7.446;2023-02-28T10:46:42;7.10;99.90
36186;DHT22;22228;53.222;7.446;2023-02-28T10:49:05;7.20;99.90
36186;DHT22;22228;53.222;7.446;2023-02-28T10:51:34;7.30;99.90
36186;DHT22;22228;53.222;7.446;2023-02-28T10:53:56;7.50;1.00
36186;DHT22;22228;53.222;7.446;2023-02-28T10:56:20;7.60;99.90
36186;DHT22;22228;53.222;7.446;2023-02-28T10:58:49;7.70;1.00
36186;DHT22;22228;53.222;7.446;2023-02-28T11:01:14;7.90;99.90
36186;DHT22;22228;53.222;7.446;2023-02-28T11:03:35;8.10;1.00
36186;DHT22;22228;53.222;7.446;2023-02-28T11:05:56;8.40;1.00
36186;DHT22;22228;53.222;7.446;2023-02-28T11:08:17;8.60;99.90
36186;DHT22;22228;53.222;7.446;2023-02-28T11:10:38;8.80;4.10
36186;DHT22;22228;53.222;7.446;2023-02-28T11:13:01;9.00;1.00
36186;DHT22;22228;53.222;7.446;2023-02-28T11:15:25;9.00;99.90
36186;DHT22;22228;53.222;7.446;2023-02-28T11:17:53;8.80;99.90
36186;DHT22;22228;53.222;7.446;2023-02-28T11:20:21;8.80;99.90
36186;DHT22;22228;53.222;7.446;2023-02-28T11:22:44;8.70;1.00
36186;DHT22;22228;53.222;7.446;2023-02-28T11:25:09;8.50;1.00
36186;DHT22;22228;53.222;7.446;2023-02-28T11:27:46;8.50;1.00
36186;DHT22;22228;53.222;7.446;2023-02-28T11:30:23;8.50;1.00
36186;DHT22;22228;53.222;7.446;2023-02-28T11:32:48;8.50;1.00
36186;DHT22;22228;53.222;7.446;2023-02-28T11:35:17;8.50;1.00
36186;DHT22;22228;53.222;7.446;2023-02-28T11:37:41;8.50;1.00
36186;DHT22;22228;53.222;7.446;2023-02-28T11:40:02;8.50;1.00
36186;DHT22;22228;53.222;7.446;2023-02-28T11:42:41;8.40;1.00
36186;DHT22;22228;53.222;7.446;2023-02-28T11:45:14;8.30;1.00
36186;DHT22;22228;53.222;7.446;2023-02-28T11:47:47;8.10;8.10
36186;DHT22;22228;53.222;7.446;2023-02-28T11:50:16;7.90;1.00
36186;DHT22;22228;53.222;7.446;2023-02-28T11:52:45;7.80;99.90
36186;DHT22;22228;53.222;7.446;2023-02-28T11:55:14;7.60;1.00
36186;DHT22;22228;53.222;7.446;2023-02-28T11:57:51;7.40;1.00
36186;DHT22;22228;53.222;7.446;2023-02-28T12:00:25;7.30;1.00
36186;DHT22;22228;53.222;7.446;2023-02-28T12:02:58;7.10;91.90
36186;DHT22;22228;53.222;7.446;2023-02-28T12:05:25;7.00;1.00
36186;DHT22;22228;53.222;7.446;2023-02-28T12:07:59;7.00;1.00
36186;DHT22;22228;53.222;7.446;2023-02-28T12:10:22;6.90;1.00
36186;DHT22;22228;53.222;7.446;2023-02-28T12:12:50;7.00;99.90
36186;DHT22;22228;53.222;7.446;2023-02-28T12:15:36;7.00;99.90
36186;DHT22;22228;53.222;7.446;2023-02-28T12:18:18;7.10;1.00
36186;DHT22;22228;53.222;7.446;2023-02-28T12:20:46;7.10;99.90
36186;DHT22;22228;53.222;7.446;2023-02-28T12:23:23;7.10;1.00
36186;DHT22;22228;53.222;7.446;2023-02-28T12:25:56;7.10;99.90
36186;DHT22;22228;53.222;7.446;2023-02-28T12:28:23;7.10;1.00
36186;DHT22;22228;53.222;7.446;2023-02-28T12:30:50;7.20;99.90
36186;DHT22;22228;53.222;7.446;2023-02-28T12:33:16;7.10;99.90
36186;DHT22;22228;53.222;7.446;2023-02-28T12:35:41;7.10;1.00
36186;DHT22;22228;53.222;7.446;2023-02-28T12:38:08;7.10;99.90
36186;DHT22;22228;53.222;7.446;2023-02-28T12:40:38;7.10;99.90
36186;DHT22;22228;53.222;7.446;2023-02-28T12:43:04;7.10;1.00
36186;DHT22;22228;53.222;7.446;2023-02-28T12:45:35;7.10;1.00
36186;DHT22;22228;53.222;7.446;2023-02-28T12:48:01;7.10;99.90
36186;DHT22;22228;53.222;7.446;2023-02-28T12:50:26;7.10;99.90
36186;DHT22;22228;53.222;7.446;2023-02-28T12:52:54;7.10;1.00
36186;DHT22;22228;53.222;7.446;2023-02-28T12:55:21;7.10;1.00
36186;DHT22;22228;53.222;7.446;2023-02-28T12:57:49;7.10;1.00
36186;DHT22;22228;53.222;7.446;2023-02-28T13:00:13;7.00;1.00
36186;DHT22;22228;53.222;7.446;2023-02-28T13:03:03;7.10;99.90
36186;DHT22;22228;53.222;7.446;2023-02-28T13:06:05;7.00;1.00
36186;DHT22;22228;53.222;7.446;2023-02-28T13:11:25;7.00;1.00
36186;DHT22;22228;53.222;7.446;2023-02-28T13:13:46;6.90;1.00
36186;DHT22;22228;53.222;7.446;2023-02-28T13:16:08;6.90;1.00
36186;DHT22;22228;53.222;7.446;2023-02-28T13:18:31;6.80;1.00
36186;DHT22;22228;53.222;7.446;2023-02-28T13:20:53;6.70;1.00
36186;DHT22;22228;53.222;7.446;2023-02-28T13:23:39;6.60;1.00
36186;DHT22;22228;53.222;7.446;2023-02-28T13:25:59;6.50;99.90
36186;DHT22;22228;53.222;7.446;2023-02-28T13:31:19;6.60;99.90
36186;DHT22;22228;53.222;7.446;2023-02-28T13:34:05;6.60;99.90
36186;DHT22;22228;53.222;7.446;2023-02-28T13:36:29;6.60;1.00
36186;DHT22;22228;53.222;7.446;2023-02-28T13:38:51;6.70;99.90
36186;DHT22;22228;53.222;7.446;2023-02-28T13:41:44;6.70;99.90
36186;DHT22;22228;53.222;7.446;2023-02-28T13:44:05;6.70;99.90
36186;DHT22;22228;53.222;7.446;2023-02-28T13:46:26;6.80;1.00
36186;DHT22;22228;53.222;7.446;2023-02-28T13:48:47;6.80;99.90
36186;DHT22;22228;53.222;7.446;2023-02-28T13:51:37;6.80;1.00
36186;DHT22;22228;53.222;7.446;2023-02-28T13:54:03;6.70;99.90
36186;DHT22;22228;53.222;7.446;2023-02-28T13:56:35;6.70;1.00
36186;DHT22;22228;53.222;7.446;2023-02-28T13:59:08;6.70;1.00
36186;DHT22;22228;53.222;7.446;2023-02-28T14:01:43;6.70;1.00
36186;DHT22;22228;53.222;7.446;2023-02-28T14:04:39;6.70;1.00
36186;DHT22;22228;53.222;7.446;2023-02-28T14:07:03;6.70;1.00
36186;DHT22;22228;53.222;7.446;2023-02-28T14:09:26;6.70;99.90
36186;DHT22;22228;53.222;7.446;2023-02-28T14:11:48;6.70;99.90
36186;DHT22;22228;53.222;7.446;2023-02-28T14:14:09;6.70;1.00
36186;DHT22;22228;53.222;7.446;2023-02-28T14:16:49;6.70;99.90
36186;DHT22;22228;53.222;7.446;2023-02-28T14:19:12;6.80;1.00
36186;DHT22;22228;53.222;7.446;2023-02-28T14:21:35;6.80;1.00
36186;DHT22;22228;53.222;7.446;2023-02-28T14:27:29;6.80;1.00
36186;DHT22;22228;53.222;7.446;2023-02-28T14:30:29;6.80;1.00
36186;DHT22;22228;53.222;7.446;2023-02-28T14:33:05;6.80;99.90
36186;DHT22;22228;53.222;7.446;2023-02-28T14:35:46;6.80;99.90
36186;DHT22;22228;53.222;7.446;2023-02-28T14:38:15;6.80;99.90
36186;DHT22;22228;53.222;7.446;2023-02-28T14:40:39;6.90;24.80
36186;DHT22;22228;53.222;7.446;2023-02-28T14:43:02;6.90;99.90
36186;DHT22;22228;53.222;7.446;2023-02-28T14:45:23;7.00;99.90
36186;DHT22;22228;53.222;7.446;2023-02-28T14:47:44;7.00;1.00
36186;DHT22;22228;53.222;7.446;2023-02-28T14:50:04;7.10;99.90
36186;DHT22;22228;53.222;7.446;2023-02-28T14:52:27;7.10;1.00
36186;DHT22;22228;53.222;7.446;2023-02-28T14:54:52;7.20;1.00
36186;DHT22;22228;53.222;7.446;2023-02-28T14:57:24;7.30;99.90
36186;DHT22;22228;53.222;7.446;2023-02-28T14:59:56;7.30;1.00
36186;DHT22;22228;53.222;7.446;2023-02-28T15:02:21;7.30;1.00
36186;DHT22;22228;53.222;7.446;2023-02-28T15:04:42;7.20;99.90
36186;DHT22;22228;53.222;7.446;2023-02-28T15:07:09;7.10;1.00
36186;DHT22;22228;53.222;7.446;2023-02-28T15:09:29;7.10;1.00
36186;DHT22;22228;53.222;7.446;2023-02-28T15:11:50;7.10;1.00
36186;DHT22;22228;53.222;7.446;2023-02-28T15:14:16;7.10;99.90
36186;DHT22;22228;53.222;7.446;2023-02-28T15:16:41;7.10;1.00
36186;DHT22;22228;53.222;7.446;2023-02-28T15:19:05;7.10;1.00
36186;DHT22;22228;53.222;7.446;2023-02-28T15:21:28;7.10;1.00
36186;DHT22;22228;53.222;7.446;2023-02-28T15:23:53;7.10;99.90
36186;DHT22;22228;53.222;7.446;2023-02-28T15:26:15;7.10;1.00
36186;DHT22;22228;53.222;7.446;2023-02-28T15:28:37;7.00;1.00
36186;DHT22;22228;53.222;7.446;2023-02-28T15:30:59;7.00;99.90
36186;DHT22;22228;53.222;7.446;2023-02-28T15:33:22;7.00;99.90
36186;DHT22;22228;53.222;7.446;2023-02-28T15:35:43;7.00;99.90
36186;DHT22;22228;53.222;7.446;2023-02-28T15:38:15;7.00;99.90
36186;DHT22;22228;53.222;7.446;2023-02-28T15:40:37;6.90;99.90
36186;DHT22;22228;53.222;7.446;2023-02-28T15:43:00;6.90;99.90
36186;DHT22;22228;53.222;7.446;2023-02-28T15:45:33;6.90;1.00
36186;DHT22;22228;53.222;7.446;2023-02-28T15:47:57;6.90;1.00
36186;DHT22;22228;53.222;7.446;2023-02-28T15:50:19;6.80;1.00
36186;DHT22;22228;53.222;7.446;2023-02-28T15:52:42;6.80;1.00
36186;DHT22;22228;53.222;7.446;2023-02-28T15:55:09;6.80;1.00
36186;DHT22;22228;53.222;7.446;2023-02-28T15:57:31;6.70;99.90
36186;DHT22;22228;53.222;7.446;2023-02-28T15:59:54;6.70;1.00
36186;DHT22;22228;53.222;7.446;2023-02-28T16:02:17;6.60;1.00
36186;DHT22;22228;53.222;7.446;2023-02-28T16:04:55;6.60;1.00
36186;DHT22;22228;53.222;7.446;2023-02-28T16:07:17;6.50;99.90
36186;DHT22;22228;53.222;7.446;2023-02-28T16:09:38;6.40;1.00
36186;DHT22;22228;53.222;7.446;2023-02-28T16:12:00;6.40;1.00
36186;DHT22;22228;53.222;7.446;2023-02-28T16:14:23;6.30;99.90
36186;DHT22;22228;53.222;7.446;2023-02-28T16:16:48;6.20;99.90
36186;DHT22;22228;53.222;7.446;2023-02-28T16:19:09;6.20;1.00
36186;DHT22;22228;53.222;7.446;2023-02-28T16:21:30;6.20;99.90
36186;DHT22;22228;53.222;7.446;2023-02-28T16:23:52;6.20;99.90
36186;DHT22;22228;53.222;7.446;2023-02-28T16:26:20;6.20;1.00
36186;DHT22;22228;53.222;7.446;2023-02-28T16:28:41;6.10;1.00
36186;DHT22;22228;53.222;7.446;2023-02-28T16:31:02;6.00;1.00
36186;DHT22;22228;53.222;7.446;2023-02-28T16:33:24;5.90;1.00
36186;DHT22;22228;53.222;7.446;2023-02-28T16:35:44;5.80;3.50
36186;DHT22;22228;53.222;7.446;2023-02-28T16:38:05;5.70;99.90
36186;DHT22;22228;53.222;7.446;2023-02-28T16:40:27;5.60;1.00
36186;DHT22;22228;53.222;7.446;2023-02-28T16:42:50;5.50;30.20
36186;DHT22;22228;53.222;7.446;2023-02-28T16:45:17;5.40;99.90
36186;DHT22;22228;53.222;7.446;2023-02-28T16:47:38;5.20;1.00
36186;DHT22;22228;53.222;7.446;2023-02-28T16:49:58;5.10;99.90
36186;DHT22;22228;53.222;7.446;2023-02-28T16:52:19;5.00;1.00
36186;DHT22;22228;53.222;7.446;2023-02-28T16:54:40;4.80;1.00
36186;DHT22;22228;53.222;7.446;2023-02-28T16:57:02;4.70;99.90
36186;DHT22;22228;53.222;7.446;2023-02-28T16:59:24;4.60;99.90
36186;DHT22;22228;53.222;7.446;2023-02-28T17:01:46;4.50;99.90
36186;DHT22;22228;53.222;7.446;2023-02-28T17:04:08;4.40;99.90
36186;DHT22;22228;53.222;7.446;2023-02-28T17:06:30;4.30;1.00
36186;DHT22;22228;53.222;7.446;2023-02-28T17:08:50;4.20;1.00
36186;DHT22;22228;53.222;7.446;2023-02-28T17:11:11;4.10;99.90
36186;DHT22;22228;53.222;7.446;2023-02-28T17:13:33;4.10;16.40
36186;DHT22;22228;53.222;7.446;2023-02-28T17:15:53;4.00;99.90
36186;DHT22;22228;53.222;7.446;2023-02-28T17:18:17;3.90;99.90
36186;DHT22;22228;53.222;7.446;2023-02-28T17:20:38;3.80;1.00
36186;DHT22;22228;53.222;7.446;2023-02-28T17:23:00;3.80;1.00
36186;DHT22;22228;53.222;7.446;2023-02-28T17:25:21;3.80;1.00
36186;DHT22;22228;53.222;7.446;2023-02-28T17:27:42;3.70;1.00
36186;DHT22;22228;53.222;7.446;2023-02-28T17:30:13;3.70;1.00
36186;DHT22;22228;53.222;7.446;2023-02-28T17:32:34;3.70;1.00
36186;DHT22;22228;53.222;7.446;2023-02-28T17:34:54;3.60;1.00
36186;DHT22;22228;53.222;7.446;2023-02-28T17:37:15;3.50;99.90
36186;DHT22;22228;53.222;7.446;2023-02-28T17:39:36;3.50;99.90
36186;DHT22;22228;53.222;7.446;2023-02-28T17:41:56;3.40;1.00
36186;DHT22;22228;53.222;7.446;2023-02-28T17:44:17;3.40;1.00
36186;DHT22;22228;53.222;7.446;2023-02-28T17:46:39;3.30;1.00
36186;DHT22;22228;53.222;7.446;2023-02-28T17:49:00;3.20;1.00
36186;DHT22;22228;53.222;7.446;2023-02-28T17:51:22;3.20;1.00
36186;DHT22;22228;53.222;7.446;2023-02-28T17:53:43;3.10;1.00
36186;DHT22;22228;53.222;7.446;2023-02-28T17:56:04;3.00;1.00
36186;DHT22;22228;53.222;7.446;2023-02-28T17:58:25;2.90;97.10
36186;DHT22;22228;53.222;7.446;2023-02-28T18:00:45;2.80;99.90
36186;DHT22;22228;53.222;7.446;2023-02-28T18:03:08;2.70;1.00
36186;DHT22;22228;53.222;7.446;2023-02-28T18:05:28;2.60;1.00
36186;DHT22;22228;53.222;7.446;2023-02-28T18:07:48;2.40;1.00
36186;DHT22;22228;53.222;7.446;2023-02-28T18:10:15;2.30;1.00
36186;DHT22;22228;53.222;7.446;2023-02-28T18:12:38;2.20;1.00
36186;DHT22;22228;53.222;7.446;2023-02-28T18:14:59;2.10;1.00
36186;DHT22;22228;53.222;7.446;2023-02-28T18:17:19;2.00;11.20
36186;DHT22;22228;53.222;7.446;2023-02-28T18:19:41;2.00;39.90
36186;DHT22;22228;53.222;7.446;2023-02-28T18:22:02;1.90;10.90